sensor_id;sensor_type;location;lat;lon;timestamp;P1;durP1;ratioP1;P2;durP2;ratioP2
819;SDS011;392;48.838;2.322;2023-02-01T00:01:34;8.53;;;6.50;;
819;SDS011;392;48.838;2.322;2023-02-01T00:04:01;7.67;;;6.97;;
819;SDS011;392;48.838;2.322;2023-02-01T00:06:30;9.27;;;6.80;;
819;SDS011;392;48.838;2.322;2023-02-01T00:08:57;8.43;;;6.67;;
819;SDS011;392;48.838;2.322;2023-02-01T00:11:24;8.40;;;5.67;;
819;SDS011;392;48.838;2.322;2023-02-01T00:13:52;7.03;;;5.80;;
819;SDS011;392;48.838;2.322;2023-02-01T00:16:20;8.40;;;5.83;;
819;SDS011;392;48.838;2.322;2023-02-01T00:18:50;8.80;;;6.73;;
819;SDS011;392;48.838;2.322;2023-02-01T00:21:23;7.07;;;5.67;;
819;SDS011;392;48.838;2.322;2023-02-01T00:23:52;7.87;;;5.37;;
819;SDS011;392;48.838;2.322;2023-02-01T00:26:20;8.83;;;5.73;;
819;SDS011;392;48.838;2.322;2023-02-01T00:28:53;10.83;;;6.50;;
819;SDS011;392;48.838;2.322;2023-02-01T00:31:21;12.37;;;6.20;;
819;SDS011;392;48.838;2.322;2023-02-01T00:33:48;6.20;;;5.40;;
819;SDS011;392;48.838;2.322;2023-02-01T00:36:16;6.33;;;5.70;;
819;SDS011;392;48.838;2.322;2023-02-01T00:38:44;6.73;;;5.53;;
819;SDS011;392;48.838;2.322;2023-02-01T00:41:14;8.03;;;6.20;;
819;SDS011;392;48.838;2.322;2023-02-01T00:43:43;6.87;;;6.13;;
819;SDS011;392;48.838;2.322;2023-02-01T00:46:11;8.23;;;6.33;;
819;SDS011;392;48.838;2.322;2023-02-01T00:48:41;7.70;;;5.60;;
819;SDS011;392;48.838;2.322;2023-02-01T00:51:10;6.63;;;5.03;;
819;SDS011;392;48.838;2.322;2023-02-01T00:53:40;8.00;;;6.13;;
819;SDS011;392;48.838;2.322;2023-02-01T00:56:08;8.93;;;5.70;;
819;SDS011;392;48.838;2.322;2023-02-01T00:58:37;8.50;;;6.73;;
819;SDS011;392;48.838;2.322;2023-02-01T01:01:07;7.70;;;5.77;;
819;SDS011;392;48.838;2.322;2023-02-01T01:03:39;7.50;;;6.07;;
819;SDS011;392;48.838;2.322;2023-02-01T01:06:09;6.67;;;5.20;;
819;SDS011;392;48.838;2.322;2023-02-01T01:08:38;9.87;;;5.77;;
819;SDS011;392;48.838;2.322;2023-02-01T01:11:07;6.73;;;5.80;;
819;SDS011;392;48.838;2.322;2023-02-01T01:13:38;7.80;;;6.53;;
819;SDS011;392;48.838;2.322;2023-02-01T01:16:06;9.70;;;6.50;;
819;SDS011;392;48.838;2.322;2023-02-01T01:18:35;7.33;;;5.43;;
819;SDS011;392;48.838;2.322;2023-02-01T01:21:03;7.50;;;6.13;;
819;SDS011;392;48.838;2.322;2023-02-01T01:23:32;7.27;;;5.97;;
819;SDS011;392;48.838;2.322;2023-02-01T01:26:00;7.77;;;5.90;;
819;SDS011;392;48.838;2.322;2023-02-01T01:28:31;8.17;;;5.87;;
819;SDS011;392;48.838;2.322;2023-02-01T01:31:00;8.33;;;6.13;;
819;SDS011;392;48.838;2.322;2023-02-01T01:33:27;8.03;;;6.30;;
819;SDS011;392;48.838;2.322;2023-02-01T01:35:55;6.50;;;5.43;;
819;SDS011;392;48.838;2.322;2023-02-01T01:38:22;6.83;;;5.43;;
819;SDS011;392;48.838;2.322;2023-02-01T01:40:50;7.20;;;5.10;;
819;SDS011;392;48.838;2.322;2023-02-01T01:43:18;7.37;;;5.07;;
819;SDS011;392;48.838;2.322;2023-02-01T01:45:48;9.00;;;5.50;;
819;SDS011;392;48.838;2.322;2023-02-01T01:48:19;7.07;;;5.17;;
819;SDS011;392;48.838;2.322;2023-02-01T01:50:54;6.93;;;5.10;;
819;SDS011;392;48.838;2.322;2023-02-01T01:53:33;7.27;;;4.87;;
819;SDS011;392;48.838;2.322;2023-02-01T01:56:05;8.20;;;5.67;;
819;SDS011;392;48.838;2.322;2023-02-01T01:58:33;5.70;;;4.33;;
819;SDS011;392;48.838;2.322;2023-02-01T02:01:01;9.57;;;4.60;;
819;SDS011;392;48.838;2.322;2023-02-01T02:03:32;5.60;;;4.10;;
819;SDS011;392;48.838;2.322;2023-02-01T02:06:02;4.40;;;3.70;;
819;SDS011;392;48.838;2.322;2023-02-01T02:08:33;4.17;;;3.27;;
819;SDS011;392;48.838;2.322;2023-02-01T02:11:01;5.70;;;3.50;;
819;SDS011;392;48.838;2.322;2023-02-01T02:13:29;6.07;;;3.90;;
819;SDS011;392;48.838;2.322;2023-02-01T02:16:09;5.37;;;3.20;;
819;SDS011;392;48.838;2.322;2023-02-01T02:18:56;6.03;;;2.70;;
819;SDS011;392;48.838;2.322;2023-02-01T02:21:49;5.47;;;3.00;;
819;SDS011;392;48.838;2.322;2023-02-01T02:24:42;8.33;;;3.43;;
819;SDS011;392;48.838;2.322;2023-02-01T02:27:28;5.33;;;3.30;;
819;SDS011;392;48.838;2.322;2023-02-01T02:30:15;9.63;;;3.87;;
819;SDS011;392;48.838;2.322;2023-02-01T02:36:37;6.07;;;3.30;;
819;SDS011;392;48.838;2.322;2023-02-01T02:39:15;6.70;;;3.17;;
819;SDS011;392;48.838;2.322;2023-02-01T02:41:50;6.37;;;3.83;;
819;SDS011;392;48.838;2.322;2023-02-01T02:44:45;6.20;;;3.33;;
819;SDS011;392;48.838;2.322;2023-02-01T02:47:34;8.27;;;3.57;;
819;SDS011;392;48.838;2.322;2023-02-01T02:50:11;4.80;;;3.50;;
819;SDS011;392;48.838;2.322;2023-02-01T02:53:03;5.20;;;3.10;;
819;SDS011;392;48.838;2.322;2023-02-01T02:55:54;6.33;;;3.80;;
819;SDS011;392;48.838;2.322;2023-02-01T02:58:40;5.13;;;3.30;;
819;SDS011;392;48.838;2.322;2023-02-01T03:01:27;4.37;;;3.00;;
819;SDS011;392;48.838;2.322;2023-02-01T03:04:12;6.77;;;3.80;;
819;SDS011;392;48.838;2.322;2023-02-01T03:06:46;4.70;;;3.50;;
819;SDS011;392;48.838;2.322;2023-02-01T03:09:15;6.00;;;3.77;;
819;SDS011;392;48.838;2.322;2023-02-01T03:11:47;9.13;;;4.10;;
819;SDS011;392;48.838;2.322;2023-02-01T03:14:34;5.37;;;3.33;;
819;SDS011;392;48.838;2.322;2023-02-01T03:17:05;9.03;;;4.10;;
819;SDS011;392;48.838;2.322;2023-02-01T03:19:37;3.47;;;2.93;;
819;SDS011;392;48.838;2.322;2023-02-01T03:22:11;5.47;;;2.70;;
819;SDS011;392;48.838;2.322;2023-02-01T03:24:43;7.70;;;3.37;;
819;SDS011;392;48.838;2.322;2023-02-01T03:27:14;6.03;;;3.17;;
819;SDS011;392;48.838;2.322;2023-02-01T03:29:49;7.23;;;2.97;;
819;SDS011;392;48.838;2.322;2023-02-01T03:32:22;3.57;;;3.00;;
819;SDS011;392;48.838;2.322;2023-02-01T03:34:50;6.30;;;3.23;;
819;SDS011;392;48.838;2.322;2023-02-01T03:37:21;4.23;;;3.10;;
819;SDS011;392;48.838;2.322;2023-02-01T03:39:53;7.13;;;3.13;;
819;SDS011;392;48.838;2.322;2023-02-01T03:42:27;5.40;;;3.63;;
819;SDS011;392;48.838;2.322;2023-02-01T03:45:01;10.03;;;2.90;;
819;SDS011;392;48.838;2.322;2023-02-01T03:47:37;7.40;;;3.53;;
819;SDS011;392;48.838;2.322;2023-02-01T03:50:09;6.40;;;3.00;;
819;SDS011;392;48.838;2.322;2023-02-01T03:52:42;6.23;;;3.37;;
819;SDS011;392;48.838;2.322;2023-02-01T03:55:14;8.97;;;3.80;;
819;SDS011;392;48.838;2.322;2023-02-01T03:57:46;5.17;;;3.00;;
819;SDS011;392;48.838;2.322;2023-02-01T04:00:20;5.70;;;2.80;;
819;SDS011;392;48.838;2.322;2023-02-01T04:02:50;6.80;;;3.37;;
819;SDS011;392;48.838;2.322;2023-02-01T04:05:19;5.90;;;3.63;;
819;SDS011;392;48.838;2.322;2023-02-01T04:07:57;7.13;;;3.00;;
819;SDS011;392;48.838;2.322;2023-02-01T04:10:24;5.47;;;2.90;;
819;SDS011;392;48.838;2.322;2023-02-01T04:12:52;6.80;;;2.83;;
819;SDS011;392;48.838;2.322;2023-02-01T04:15:20;6.00;;;2.90;;
819;SDS011;392;48.838;2.322;2023-02-01T04:17:47;7.57;;;3.77;;
819;SDS011;392;48.838;2.322;2023-02-01T04:20:14;4.90;;;2.80;;
819;SDS011;392;48.838;2.322;2023-02-01T04:22:43;6.07;;;3.27;;
819;SDS011;392;48.838;2.322;2023-02-01T04:25:12;6.20;;;3.07;;
819;SDS011;392;48.838;2.322;2023-02-01T04:27:39;6.77;;;3.00;;
819;SDS011;392;48.838;2.322;2023-02-01T04:30:07;8.63;;;2.90;;
819;SDS011;392;48.838;2.322;2023-02-01T04:32:35;6.67;;;2.63;;
819;SDS011;392;48.838;2.322;2023-02-01T04:35:03;5.87;;;3.50;;
819;SDS011;392;48.838;2.322;2023-02-01T04:37:31;6.93;;;3.40;;
819;SDS011;392;48.838;2.322;2023-02-01T04:39:59;9.10;;;3.30;;
819;SDS011;392;48.838;2.322;2023-02-01T04:42:30;9.73;;;3.10;;
819;SDS011;392;48.838;2.322;2023-02-01T04:44:57;5.07;;;2.93;;
819;SDS011;392;48.838;2.322;2023-02-01T04:47:24;8.73;;;3.27;;
819;SDS011;392;48.838;2.322;2023-02-01T04:49:52;6.27;;;2.53;;
819;SDS011;392;48.838;2.322;2023-02-01T04:52:20;4.10;;;2.50;;
819;SDS011;392;48.838;2.322;2023-02-01T04:54:47;9.93;;;3.50;;
819;SDS011;392;48.838;2.322;2023-02-01T04:57:14;7.57;;;3.70;;
819;SDS011;392;48.838;2.322;2023-02-01T04:59:43;5.20;;;3.27;;
819;SDS011;392;48.838;2.322;2023-02-01T05:02:10;6.67;;;2.87;;
819;SDS011;392;48.838;2.322;2023-02-01T05:04:38;8.57;;;3.77;;
819;SDS011;392;48.838;2.322;2023-02-01T05:07:05;8.00;;;2.90;;
819;SDS011;392;48.838;2.322;2023-02-01T05:09:33;6.27;;;3.07;;
819;SDS011;392;48.838;2.322;2023-02-01T05:12:00;9.90;;;3.23;;
819;SDS011;392;48.838;2.322;2023-02-01T05:14:46;4.20;;;2.77;;
819;SDS011;392;48.838;2.322;2023-02-01T05:17:14;6.77;;;2.60;;
819;SDS011;392;48.838;2.322;2023-02-01T05:19:41;8.90;;;2.97;;
819;SDS011;392;48.838;2.322;2023-02-01T05:22:09;7.27;;;3.40;;
819;SDS011;392;48.838;2.322;2023-02-01T05:24:36;6.37;;;3.77;;
819;SDS011;392;48.838;2.322;2023-02-01T05:27:03;8.83;;;3.40;;
819;SDS011;392;48.838;2.322;2023-02-01T05:29:31;5.77;;;3.00;;
819;SDS011;392;48.838;2.322;2023-02-01T05:31:59;7.77;;;2.97;;
819;SDS011;392;48.838;2.322;2023-02-01T05:34:27;10.03;;;4.00;;
819;SDS011;392;48.838;2.322;2023-02-01T05:36:54;5.93;;;3.47;;
819;SDS011;392;48.838;2.322;2023-02-01T05:39:22;5.20;;;2.90;;
819;SDS011;392;48.838;2.322;2023-02-01T05:41:49;4.77;;;2.90;;
819;SDS011;392;48.838;2.322;2023-02-01T05:44:17;8.00;;;3.30;;
819;SDS011;392;48.838;2.322;2023-02-01T05:46:44;8.80;;;3.63;;
819;SDS011;392;48.838;2.322;2023-02-01T05:49:13;5.87;;;3.47;;
819;SDS011;392;48.838;2.322;2023-02-01T05:51:40;8.97;;;3.30;;
819;SDS011;392;48.838;2.322;2023-02-01T05:54:08;9.83;;;3.10;;
819;SDS011;392;48.838;2.322;2023-02-01T05:56:36;3.83;;;3.00;;
819;SDS011;392;48.838;2.322;2023-02-01T05:59:03;11.40;;;3.60;;
819;SDS011;392;48.838;2.322;2023-02-01T06:01:30;6.30;;;3.10;;
819;SDS011;392;48.838;2.322;2023-02-01T06:03:57;7.47;;;3.17;;
819;SDS011;392;48.838;2.322;2023-02-01T06:06:26;6.10;;;3.13;;
819;SDS011;392;48.838;2.322;2023-02-01T06:08:53;11.93;;;3.70;;
819;SDS011;392;48.838;2.322;2023-02-01T06:11:21;7.83;;;3.40;;
819;SDS011;392;48.838;2.322;2023-02-01T06:13:48;9.03;;;3.10;;
819;SDS011;392;48.838;2.322;2023-02-01T06:16:16;8.50;;;3.67;;
819;SDS011;392;48.838;2.322;2023-02-01T06:18:43;5.37;;;3.10;;
819;SDS011;392;48.838;2.322;2023-02-01T06:21:10;5.50;;;3.07;;
819;SDS011;392;48.838;2.322;2023-02-01T06:23:40;7.80;;;4.10;;
819;SDS011;392;48.838;2.322;2023-02-01T06:26:07;8.43;;;3.80;;
819;SDS011;392;48.838;2.322;2023-02-01T06:28:35;8.97;;;4.33;;
819;SDS011;392;48.838;2.322;2023-02-01T06:31:04;7.93;;;3.77;;
819;SDS011;392;48.838;2.322;2023-02-01T06:33:33;6.17;;;3.40;;
819;SDS011;392;48.838;2.322;2023-02-01T06:36:01;11.50;;;3.37;;
819;SDS011;392;48.838;2.322;2023-02-01T06:38:31;4.33;;;2.73;;
819;SDS011;392;48.838;2.322;2023-02-01T06:41:02;6.70;;;3.63;;
819;SDS011;392;48.838;2.322;2023-02-01T06:43:30;6.83;;;3.43;;
819;SDS011;392;48.838;2.322;2023-02-01T06:45:59;9.37;;;3.70;;
819;SDS011;392;48.838;2.322;2023-02-01T06:48:27;9.30;;;3.93;;
819;SDS011;392;48.838;2.322;2023-02-01T06:50:55;11.00;;;4.00;;
819;SDS011;392;48.838;2.322;2023-02-01T06:53:23;11.60;;;4.20;;
819;SDS011;392;48.838;2.322;2023-02-01T06:55:51;10.90;;;4.50;;
819;SDS011;392;48.838;2.322;2023-02-01T06:58:21;9.90;;;4.03;;
819;SDS011;392;48.838;2.322;2023-02-01T07:00:48;6.47;;;4.10;;
819;SDS011;392;48.838;2.322;2023-02-01T07:03:16;7.43;;;4.20;;
819;SDS011;392;48.838;2.322;2023-02-01T07:05:43;7.00;;;3.43;;
819;SDS011;392;48.838;2.322;2023-02-01T07:08:11;7.33;;;3.57;;
819;SDS011;392;48.838;2.322;2023-02-01T07:10:38;7.23;;;3.80;;
819;SDS011;392;48.838;2.322;2023-02-01T07:13:05;10.93;;;3.30;;
819;SDS011;392;48.838;2.322;2023-02-01T07:15:34;8.83;;;4.47;;
819;SDS011;392;48.838;2.322;2023-02-01T07:18:01;8.20;;;3.70;;
819;SDS011;392;48.838;2.322;2023-02-01T07:20:29;9.20;;;4.20;;
819;SDS011;392;48.838;2.322;2023-02-01T07:22:56;7.63;;;3.73;;
819;SDS011;392;48.838;2.322;2023-02-01T07:25:24;8.20;;;4.17;;
819;SDS011;392;48.838;2.322;2023-02-01T07:27:51;15.00;;;9.23;;
819;SDS011;392;48.838;2.322;2023-02-01T07:30:19;14.57;;;6.40;;
819;SDS011;392;48.838;2.322;2023-02-01T07:32:47;9.07;;;3.70;;
819;SDS011;392;48.838;2.322;2023-02-01T07:35:15;9.50;;;3.40;;
819;SDS011;392;48.838;2.322;2023-02-01T07:37:42;10.50;;;3.70;;
819;SDS011;392;48.838;2.322;2023-02-01T07:40:10;7.20;;;3.57;;
819;SDS011;392;48.838;2.322;2023-02-01T07:42:39;6.03;;;3.40;;
819;SDS011;392;48.838;2.322;2023-02-01T07:45:07;5.43;;;3.60;;
819;SDS011;392;48.838;2.322;2023-02-01T07:47:35;8.27;;;3.60;;
819;SDS011;392;48.838;2.322;2023-02-01T07:50:04;5.73;;;3.50;;
819;SDS011;392;48.838;2.322;2023-02-01T07:52:32;9.43;;;3.40;;
819;SDS011;392;48.838;2.322;2023-02-01T07:54:59;10.70;;;4.20;;
819;SDS011;392;48.838;2.322;2023-02-01T07:57:26;7.80;;;4.00;;
819;SDS011;392;48.838;2.322;2023-02-01T07:59:54;9.93;;;4.17;;
819;SDS011;392;48.838;2.322;2023-02-01T08:02:40;9.87;;;3.93;;
819;SDS011;392;48.838;2.322;2023-02-01T08:05:09;12.63;;;4.37;;
819;SDS011;392;48.838;2.322;2023-02-01T08:07:36;9.00;;;4.57;;
819;SDS011;392;48.838;2.322;2023-02-01T08:10:04;6.97;;;4.30;;
819;SDS011;392;48.838;2.322;2023-02-01T08:12:36;9.07;;;4.40;;
819;SDS011;392;48.838;2.322;2023-02-01T08:15:03;10.33;;;4.00;;
819;SDS011;392;48.838;2.322;2023-02-01T08:17:32;11.23;;;4.33;;
819;SDS011;392;48.838;2.322;2023-02-01T08:19:59;6.67;;;3.70;;
819;SDS011;392;48.838;2.322;2023-02-01T08:22:32;5.50;;;3.13;;
819;SDS011;392;48.838;2.322;2023-02-01T08:25:00;11.67;;;4.77;;
819;SDS011;392;48.838;2.322;2023-02-01T08:27:28;14.43;;;4.63;;
819;SDS011;392;48.838;2.322;2023-02-01T08:29:59;11.77;;;4.40;;
819;SDS011;392;48.838;2.322;2023-02-01T08:32:26;10.17;;;3.93;;
819;SDS011;392;48.838;2.322;2023-02-01T08:34:54;17.30;;;4.67;;
819;SDS011;392;48.838;2.322;2023-02-01T08:37:21;11.13;;;4.03;;
819;SDS011;392;48.838;2.322;2023-02-01T08:39:50;7.70;;;3.33;;
819;SDS011;392;48.838;2.322;2023-02-01T08:42:17;7.30;;;3.63;;
819;SDS011;392;48.838;2.322;2023-02-01T08:45:03;11.10;;;4.90;;
819;SDS011;392;48.838;2.322;2023-02-01T08:47:33;8.37;;;3.77;;
819;SDS011;392;48.838;2.322;2023-02-01T08:50:01;6.53;;;4.10;;
819;SDS011;392;48.838;2.322;2023-02-01T08:52:28;8.70;;;4.13;;
819;SDS011;392;48.838;2.322;2023-02-01T08:54:57;11.03;;;5.07;;
819;SDS011;392;48.838;2.322;2023-02-01T08:57:24;9.27;;;3.80;;
819;SDS011;392;48.838;2.322;2023-02-01T08:59:52;10.00;;;4.70;;
819;SDS011;392;48.838;2.322;2023-02-01T09:02:19;10.00;;;3.70;;
819;SDS011;392;48.838;2.322;2023-02-01T09:04:46;10.07;;;3.73;;
819;SDS011;392;48.838;2.322;2023-02-01T09:07:14;9.20;;;3.83;;
819;SDS011;392;48.838;2.322;2023-02-01T09:09:42;13.40;;;4.60;;
819;SDS011;392;48.838;2.322;2023-02-01T09:12:11;9.53;;;4.37;;
819;SDS011;392;48.838;2.322;2023-02-01T09:14:39;7.13;;;3.93;;
819;SDS011;392;48.838;2.322;2023-02-01T09:17:06;6.50;;;3.90;;
819;SDS011;392;48.838;2.322;2023-02-01T09:19:35;9.47;;;3.10;;
819;SDS011;392;48.838;2.322;2023-02-01T09:22:02;10.67;;;4.30;;
819;SDS011;392;48.838;2.322;2023-02-01T09:24:30;10.30;;;3.90;;
819;SDS011;392;48.838;2.322;2023-02-01T09:26:57;8.03;;;3.60;;
819;SDS011;392;48.838;2.322;2023-02-01T09:29:26;7.40;;;3.80;;
819;SDS011;392;48.838;2.322;2023-02-01T09:31:53;18.13;;;5.00;;
819;SDS011;392;48.838;2.322;2023-02-01T09:34:20;5.73;;;2.97;;
819;SDS011;392;48.838;2.322;2023-02-01T09:36:48;8.17;;;3.40;;
819;SDS011;392;48.838;2.322;2023-02-01T09:39:15;5.83;;;3.63;;
819;SDS011;392;48.838;2.322;2023-02-01T09:41:45;10.90;;;3.40;;
819;SDS011;392;48.838;2.322;2023-02-01T09:44:43;9.90;;;3.20;;
819;SDS011;392;48.838;2.322;2023-02-01T09:47:27;10.50;;;4.17;;
819;SDS011;392;48.838;2.322;2023-02-01T09:49:57;12.70;;;4.70;;
819;SDS011;392;48.838;2.322;2023-02-01T09:52:30;6.23;;;3.70;;
819;SDS011;392;48.838;2.322;2023-02-01T09:55:04;7.57;;;2.90;;
819;SDS011;392;48.838;2.322;2023-02-01T09:57:43;8.03;;;3.80;;
819;SDS011;392;48.838;2.322;2023-02-01T10:00:19;9.57;;;3.50;;
819;SDS011;392;48.838;2.322;2023-02-01T10:02:51;7.13;;;3.03;;
819;SDS011;392;48.838;2.322;2023-02-01T10:05:22;6.97;;;3.23;;
819;SDS011;392;48.838;2.322;2023-02-01T10:08:10;8.00;;;3.00;;
819;SDS011;392;48.838;2.322;2023-02-01T10:10:47;9.77;;;3.17;;
819;SDS011;392;48.838;2.322;2023-02-01T10:13:19;7.03;;;3.03;;
819;SDS011;392;48.838;2.322;2023-02-01T10:16:10;4.73;;;3.23;;
819;SDS011;392;48.838;2.322;2023-02-01T10:18:50;9.30;;;3.60;;
819;SDS011;392;48.838;2.322;2023-02-01T10:21:32;5.27;;;2.90;;
819;SDS011;392;48.838;2.322;2023-02-01T10:24:15;15.43;;;4.80;;
819;SDS011;392;48.838;2.322;2023-02-01T10:26:54;9.10;;;3.60;;
819;SDS011;392;48.838;2.322;2023-02-01T10:29:28;13.13;;;4.77;;
819;SDS011;392;48.838;2.322;2023-02-01T10:32:10;5.00;;;3.00;;
819;SDS011;392;48.838;2.322;2023-02-01T10:34:41;7.90;;;3.30;;
819;SDS011;392;48.838;2.322;2023-02-01T10:37:25;9.83;;;3.47;;
819;SDS011;392;48.838;2.322;2023-02-01T10:39:57;8.53;;;3.43;;
819;SDS011;392;48.838;2.322;2023-02-01T10:42:28;4.93;;;3.00;;
819;SDS011;392;48.838;2.322;2023-02-01T10:44:59;10.83;;;3.77;;
819;SDS011;392;48.838;2.322;2023-02-01T10:47:31;11.03;;;3.40;;
819;SDS011;392;48.838;2.322;2023-02-01T10:50:02;6.50;;;3.43;;
819;SDS011;392;48.838;2.322;2023-02-01T10:52:42;7.60;;;4.00;;
819;SDS011;392;48.838;2.322;2023-02-01T10:55:26;6.73;;;3.93;;
819;SDS011;392;48.838;2.322;2023-02-01T10:58:02;9.40;;;3.70;;
819;SDS011;392;48.838;2.322;2023-02-01T11:00:34;9.00;;;3.93;;
819;SDS011;392;48.838;2.322;2023-02-01T11:03:22;6.43;;;2.83;;
819;SDS011;392;48.838;2.322;2023-02-01T11:06:01;7.53;;;2.97;;
819;SDS011;392;48.838;2.322;2023-02-01T11:08:41;11.23;;;3.13;;
819;SDS011;392;48.838;2.322;2023-02-01T11:11:11;7.93;;;3.13;;
819;SDS011;392;48.838;2.322;2023-02-01T11:13:39;8.97;;;3.27;;
819;SDS011;392;48.838;2.322;2023-02-01T11:16:09;8.13;;;3.93;;
819;SDS011;392;48.838;2.322;2023-02-01T11:18:41;5.47;;;3.23;;
819;SDS011;392;48.838;2.322;2023-02-01T11:21:09;11.20;;;3.97;;
819;SDS011;392;48.838;2.322;2023-02-01T11:23:42;7.40;;;3.50;;
819;SDS011;392;48.838;2.322;2023-02-01T11:26:12;8.83;;;3.60;;
819;SDS011;392;48.838;2.322;2023-02-01T11:28:50;9.60;;;3.53;;
819;SDS011;392;48.838;2.322;2023-02-01T11:31:22;8.67;;;2.87;;
819;SDS011;392;48.838;2.322;2023-02-01T11:33:53;9.37;;;3.30;;
819;SDS011;392;48.838;2.322;2023-02-01T11:36:26;7.60;;;3.80;;
819;SDS011;392;48.838;2.322;2023-02-01T11:39:07;12.23;;;4.47;;
819;SDS011;392;48.838;2.322;2023-02-01T11:41:54;7.70;;;3.13;;
819;SDS011;392;48.838;2.322;2023-02-01T11:44:29;6.30;;;3.13;;
819;SDS011;392;48.838;2.322;2023-02-01T11:47:20;10.90;;;3.37;;
819;SDS011;392;48.838;2.322;2023-02-01T11:49:53;9.93;;;4.17;;
819;SDS011;392;48.838;2.322;2023-02-01T11:55:24;14.97;;;3.80;;
819;SDS011;392;48.838;2.322;2023-02-01T11:58:11;7.10;;;3.10;;
819;SDS011;392;48.838;2.322;2023-02-01T12:00:57;10.77;;;3.57;;
819;SDS011;392;48.838;2.322;2023-02-01T12:03:52;7.80;;;3.40;;
819;SDS011;392;48.838;2.322;2023-02-01T12:07:05;6.73;;;3.37;;
819;SDS011;392;48.838;2.322;2023-02-01T12:09:44;7.57;;;3.43;;
819;SDS011;392;48.838;2.322;2023-02-01T12:12:28;9.10;;;4.17;;
819;SDS011;392;48.838;2.322;2023-02-01T12:15:22;10.00;;;3.33;;
819;SDS011;392;48.838;2.322;2023-02-01T12:21:23;5.37;;;3.23;;
819;SDS011;392;48.838;2.322;2023-02-01T12:24:19;7.07;;;4.07;;
819;SDS011;392;48.838;2.322;2023-02-01T12:27:43;7.50;;;2.90;;
819;SDS011;392;48.838;2.322;2023-02-01T12:30:36;7.50;;;2.90;;
819;SDS011;392;48.838;2.322;2023-02-01T12:33:49;8.30;;;3.50;;
819;SDS011;392;48.838;2.322;2023-02-01T12:36:41;8.73;;;3.00;;
819;SDS011;392;48.838;2.322;2023-02-01T12:39:36;4.93;;;2.83;;
819;SDS011;392;48.838;2.322;2023-02-01T12:42:22;4.93;;;2.90;;
819;SDS011;392;48.838;2.322;2023-02-01T12:45:04;6.43;;;3.50;;
819;SDS011;392;48.838;2.322;2023-02-01T12:48:02;6.27;;;2.73;;
819;SDS011;392;48.838;2.322;2023-02-01T12:51:28;7.20;;;2.60;;
819;SDS011;392;48.838;2.322;2023-02-01T12:54:02;6.73;;;3.53;;
819;SDS011;392;48.838;2.322;2023-02-01T12:56:44;11.57;;;3.60;;
819;SDS011;392;48.838;2.322;2023-02-01T12:59:17;6.60;;;3.37;;
819;SDS011;392;48.838;2.322;2023-02-01T13:01:52;5.73;;;2.87;;
819;SDS011;392;48.838;2.322;2023-02-01T13:04:26;5.40;;;2.80;;
819;SDS011;392;48.838;2.322;2023-02-01T13:07:01;8.37;;;3.07;;
819;SDS011;392;48.838;2.322;2023-02-01T13:09:37;6.23;;;2.93;;
819;SDS011;392;48.838;2.322;2023-02-01T13:12:12;8.20;;;3.10;;
819;SDS011;392;48.838;2.322;2023-02-01T13:14:46;6.20;;;3.03;;
819;SDS011;392;48.838;2.322;2023-02-01T13:17:20;8.60;;;2.97;;
819;SDS011;392;48.838;2.322;2023-02-01T13:19:52;9.67;;;2.80;;
819;SDS011;392;48.838;2.322;2023-02-01T13:22:25;7.83;;;3.00;;
819;SDS011;392;48.838;2.322;2023-02-01T13:24:58;6.57;;;2.77;;
819;SDS011;392;48.838;2.322;2023-02-01T13:27:31;6.28;;;3.10;;
819;SDS011;392;48.838;2.322;2023-02-01T13:30:00;6.50;;;2.80;;
819;SDS011;392;48.838;2.322;2023-02-01T13:32:37;6.20;;;2.90;;
819;SDS011;392;48.838;2.322;2023-02-01T13:35:32;9.77;;;3.47;;
819;SDS011;392;48.838;2.322;2023-02-01T13:38:30;7.30;;;3.50;;
819;SDS011;392;48.838;2.322;2023-02-01T13:41:19;6.23;;;2.70;;
819;SDS011;392;48.838;2.322;2023-02-01T13:43:55;6.60;;;3.10;;
819;SDS011;392;48.838;2.322;2023-02-01T13:46:27;6.90;;;3.30;;
819;SDS011;392;48.838;2.322;2023-02-01T13:48:55;6.33;;;2.83;;
819;SDS011;392;48.838;2.322;2023-02-01T13:51:31;7.13;;;3.40;;
819;SDS011;392;48.838;2.322;2023-02-01T13:54:03;8.60;;;3.63;;
819;SDS011;392;48.838;2.322;2023-02-01T13:56:39;9.77;;;4.77;;
819;SDS011;392;48.838;2.322;2023-02-01T14:08:23;8.57;;;2.83;;
819;SDS011;392;48.838;2.322;2023-02-01T14:11:06;8.53;;;3.40;;
819;SDS011;392;48.838;2.322;2023-02-01T14:23:15;11.57;;;3.27;;
819;SDS011;392;48.838;2.322;2023-02-01T14:25:46;5.77;;;2.70;;
819;SDS011;392;48.838;2.322;2023-02-01T14:28:32;5.77;;;2.90;;
819;SDS011;392;48.838;2.322;2023-02-01T14:31:22;6.73;;;3.20;;
819;SDS011;392;48.838;2.322;2023-02-01T14:34:13;6.33;;;3.27;;
819;SDS011;392;48.838;2.322;2023-02-01T14:36:49;5.90;;;3.23;;
819;SDS011;392;48.838;2.322;2023-02-01T14:39:21;7.97;;;3.33;;
819;SDS011;392;48.838;2.322;2023-02-01T14:42:00;6.30;;;3.27;;
819;SDS011;392;48.838;2.322;2023-02-01T14:44:33;5.60;;;2.30;;
819;SDS011;392;48.838;2.322;2023-02-01T14:47:08;4.80;;;3.37;;
819;SDS011;392;48.838;2.322;2023-02-01T14:50:10;7.47;;;2.73;;
819;SDS011;392;48.838;2.322;2023-02-01T14:53:06;7.60;;;2.57;;
819;SDS011;392;48.838;2.322;2023-02-01T14:55:46;4.63;;;2.37;;
819;SDS011;392;48.838;2.322;2023-02-01T14:58:26;10.00;;;2.97;;
819;SDS011;392;48.838;2.322;2023-02-01T15:01:03;8.43;;;3.40;;
819;SDS011;392;48.838;2.322;2023-02-01T15:03:36;5.70;;;3.87;;
819;SDS011;392;48.838;2.322;2023-02-01T15:06:20;5.90;;;3.60;;
819;SDS011;392;48.838;2.322;2023-02-01T15:09:02;4.77;;;2.77;;
819;SDS011;392;48.838;2.322;2023-02-01T15:11:54;5.73;;;2.50;;
819;SDS011;392;48.838;2.322;2023-02-01T15:14:28;4.03;;;2.50;;
819;SDS011;392;48.838;2.322;2023-02-01T15:16:58;8.93;;;2.80;;
819;SDS011;392;48.838;2.322;2023-02-01T15:19:28;4.90;;;3.40;;
819;SDS011;392;48.838;2.322;2023-02-01T15:21:57;4.80;;;2.43;;
819;SDS011;392;48.838;2.322;2023-02-01T15:24:27;4.97;;;2.40;;
819;SDS011;392;48.838;2.322;2023-02-01T15:26:56;5.33;;;3.00;;
819;SDS011;392;48.838;2.322;2023-02-01T15:29:30;5.17;;;2.70;;
819;SDS011;392;48.838;2.322;2023-02-01T15:31:58;3.80;;;2.80;;
819;SDS011;392;48.838;2.322;2023-02-01T15:37:14;5.13;;;3.07;;
819;SDS011;392;48.838;2.322;2023-02-01T15:42:30;6.03;;;4.67;;
819;SDS011;392;48.838;2.322;2023-02-01T15:44:57;10.83;;;3.83;;
819;SDS011;392;48.838;2.322;2023-02-01T15:47:26;5.17;;;3.07;;
819;SDS011;392;48.838;2.322;2023-02-01T15:49:57;6.30;;;3.20;;
819;SDS011;392;48.838;2.322;2023-02-01T15:52:29;5.37;;;3.27;;
819;SDS011;392;48.838;2.322;2023-02-01T15:55:02;7.70;;;3.50;;
819;SDS011;392;48.838;2.322;2023-02-01T15:57:34;4.20;;;2.67;;
819;SDS011;392;48.838;2.322;2023-02-01T16:00:17;9.70;;;3.80;;
819;SDS011;392;48.838;2.322;2023-02-01T16:02:51;6.83;;;3.10;;
819;SDS011;392;48.838;2.322;2023-02-01T16:05:29;6.43;;;4.53;;
819;SDS011;392;48.838;2.322;2023-02-01T16:08:01;6.00;;;2.90;;
819;SDS011;392;48.838;2.322;2023-02-01T16:10:37;7.37;;;4.10;;
819;SDS011;392;48.838;2.322;2023-02-01T16:13:06;7.90;;;4.27;;
819;SDS011;392;48.838;2.322;2023-02-01T16:15:34;7.03;;;3.80;;
819;SDS011;392;48.838;2.322;2023-02-01T16:18:02;5.77;;;2.33;;
819;SDS011;392;48.838;2.322;2023-02-01T16:20:30;5.00;;;2.70;;
819;SDS011;392;48.838;2.322;2023-02-01T16:22:58;7.20;;;3.90;;
819;SDS011;392;48.838;2.322;2023-02-01T16:25:25;6.67;;;3.17;;
819;SDS011;392;48.838;2.322;2023-02-01T16:27:53;8.00;;;3.00;;
819;SDS011;392;48.838;2.322;2023-02-01T16:30:20;6.37;;;2.80;;
819;SDS011;392;48.838;2.322;2023-02-01T16:32:49;6.73;;;3.80;;
819;SDS011;392;48.838;2.322;2023-02-01T16:35:20;5.47;;;3.17;;
819;SDS011;392;48.838;2.322;2023-02-01T16:37:52;4.77;;;3.63;;
819;SDS011;392;48.838;2.322;2023-02-01T16:40:20;8.00;;;4.00;;
819;SDS011;392;48.838;2.322;2023-02-01T16:42:49;9.10;;;3.37;;
819;SDS011;392;48.838;2.322;2023-02-01T16:45:20;5.23;;;2.50;;
819;SDS011;392;48.838;2.322;2023-02-01T16:47:48;7.50;;;5.83;;
819;SDS011;392;48.838;2.322;2023-02-01T16:50:18;7.83;;;3.50;;
819;SDS011;392;48.838;2.322;2023-02-01T16:52:49;10.70;;;4.20;;
819;SDS011;392;48.838;2.322;2023-02-01T16:55:19;6.50;;;3.90;;